Time;durP1;ratioP1;P1;durP2;ratioP2;P2;SDS_P1;SDS_P2;PMS_P1;PMS_P2;Temp;Humidity;BMP_temperature;BMP_pressure;BME280_temperature;BME280_humidity;BME280_pressure;Samples;Min_cycle;Max_cycle;Signal;HPM_P1;HPM_P2
2021/06/10 00:01:19;;;;;;;7.95;3.17;;;;;;;;;;4908537;29;20046;-54
2021/06/10 00:03:45;;;;;;;6.07;3.50;;;;;;;;;;4910902;29;20405;-53
2021/06/10 00:06:10;;;;;;;6.80;3.90;;;;;;;;;;4910999;29;20073;-54
2021/06/10 00:08:36;;;;;;;11.80;6.28;;;;;;;;;;4910198;29;20040;-55
2021/06/10 00:11:02;;;;;;;7.50;4.13;;;;;;;;;;4910127;29;20047;-54
2021/06/10 00:13:28;;;;;;;6.50;3.50;;;;;;;;;;4909688;29;20055;-53
2021/06/10 00:15:54;;;;;;;8.00;3.70;;;;;;;;;;4911804;29;20107;-54
2021/06/10 00:18:20;;;;;;;6.43;3.30;;;;;;;;;;4903348;29;20114;-50
2021/06/10 00:20:46;;;;;;;10.45;3.70;;;;;;;;;;4900392;29;20323;-53
2021/06/10 00:23:11;;;;;;;7.82;3.90;;;;;;;;;;4901177;29;20048;-53
2021/06/10 00:25:37;;;;;;;5.93;3.85;;;;;;;;;;4900802;29;20044;-51
2021/06/10 00:28:03;;;;;;;5.50;3.90;;;;;;;;;;4903548;29;20094;-53
2021/06/10 00:30:31;;;;;;;6.70;3.75;;;;;;;;;;4901735;29;20529;-54
2021/06/10 00:32:56;;;;;;;7.28;4.38;;;;;;;;;;4899452;29;20507;-55
2021/06/10 00:35:23;;;;;;;9.20;4.10;;;;;;;;;;4901129;29;20035;-54
2021/06/10 00:37:49;;;;;;;7.15;4.20;;;;;;;;;;4901164;29;20062;-53
2021/06/10 00:40:16;;;;;;;8.38;4.28;;;;;;;;;;4900800;29;20836;-56
2021/06/10 00:42:42;;;;;;;8.77;3.72;;;;;;;;;;4898716;29;20052;-52
2021/06/10 00:45:08;;;;;;;5.85;3.13;;;;;;;;;;4901610;29;20386;-54
2021/06/10 00:47:34;;;;;;;6.30;2.85;;;;;;;;;;4900752;29;21616;-53
2021/06/10 00:50:00;;;;;;;6.70;2.60;;;;;;;;;;4901439;29;20043;-52
2021/06/10 00:52:26;;;;;;;8.80;2.92;;;;;;;;;;4899646;29;20454;-54
2021/06/10 00:54:52;;;;;;;8.38;2.50;;;;;;;;;;4901787;29;20459;-55
2021/06/10 00:57:17;;;;;;;9.18;2.45;;;;;;;;;;4901774;29;20048;-53
2021/06/10 00:59:43;;;;;;;5.72;2.80;;;;;;;;;;4899876;29;20067;-54
2021/06/10 01:02:09;;;;;;;5.63;2.60;;;;;;;;;;4902904;29;20039;-55
2021/06/10 01:04:35;;;;;;;6.63;2.20;;;;;;;;;;4905327;29;20230;-55
2021/06/10 01:07:10;;;;;;;5.15;2.38;;;;;;;;;;4909996;29;20051;-53
2021/06/10 01:09:48;;;;;;;4.32;2.40;;;;;;;;;;4908216;29;20054;-53
2021/06/10 01:12:28;;;;;;;8.07;2.40;;;;;;;;;;4906593;29;21650;-54
2021/06/10 01:15:14;;;;;;;4.85;2.50;;;;;;;;;;4902241;29;20703;-55
2021/06/10 01:17:43;;;;;;;7.45;2.10;;;;;;;;;;4900371;29;20048;-56
2021/06/10 01:20:08;;;;;;;9.07;2.40;;;;;;;;;;4901582;29;20495;-54
2021/06/10 01:22:40;;;;;;;5.40;2.50;;;;;;;;;;4901716;29;20048;-55
2021/06/10 01:25:14;;;;;;;5.07;2.17;;;;;;;;;;4903072;29;20368;-56
2021/06/10 01:27:47;;;;;;;5.28;2.20;;;;;;;;;;4900754;29;20047;-53
2021/06/10 01:30:18;;;;;;;4.53;2.03;;;;;;;;;;4901287;29;20048;-54
2021/06/10 01:32:49;;;;;;;6.28;2.10;;;;;;;;;;4908653;29;20050;-55
2021/06/10 01:35:15;;;;;;;5.50;2.20;;;;;;;;;;4895256;29;20770;-56
2021/06/10 01:37:42;;;;;;;5.43;2.40;;;;;;;;;;4912658;29;20048;-54
2021/06/10 01:40:09;;;;;;;7.80;2.42;;;;;;;;;;4910168;29;20060;-56
2021/06/10 01:42:37;;;;;;;5.20;2.40;;;;;;;;;;4910577;29;20048;-56
2021/06/10 01:45:03;;;;;;;7.78;2.58;;;;;;;;;;4894533;29;20040;-57
2021/06/10 01:47:28;;;;;;;7.60;3.28;;;;;;;;;;4911847;29;20051;-56
2021/06/10 01:49:56;;;;;;;4.78;2.50;;;;;;;;;;4912276;29;20040;-56
2021/06/10 01:52:23;;;;;;;5.80;2.35;;;;;;;;;;4910889;29;20179;-57
2021/06/10 01:54:49;;;;;;;5.43;2.03;;;;;;;;;;4911249;29;20040;-58
2021/06/10 01:57:16;;;;;;;5.97;2.30;;;;;;;;;;4910708;29;20047;-53
2021/06/10 01:59:42;;;;;;;6.78;2.70;;;;;;;;;;4914287;29;20052;-56
2021/06/10 02:02:09;;;;;;;4.38;2.30;;;;;;;;;;4914008;29;20040;-52
2021/06/10 02:04:35;;;;;;;4.88;2.03;;;;;;;;;;4914369;29;20063;-56
2021/06/10 02:07:01;;;;;;;5.32;2.42;;;;;;;;;;4915134;29;20437;-56
2021/06/10 02:09:27;;;;;;;5.13;2.20;;;;;;;;;;4912852;29;20138;-56
2021/06/10 02:11:54;;;;;;;5.80;2.60;;;;;;;;;;4914101;29;20645;-56
2021/06/10 02:14:20;;;;;;;5.32;2.42;;;;;;;;;;4913154;29;20147;-56
2021/06/10 02:16:46;;;;;;;6.18;2.50;;;;;;;;;;4915284;29;20100;-57
2021/06/10 02:19:14;;;;;;;6.32;2.83;;;;;;;;;;4915607;29;20059;-57
2021/06/10 02:21:40;;;;;;;5.50;2.60;;;;;;;;;;4915800;29;20047;-55
2021/06/10 02:24:06;;;;;;;5.40;3.10;;;;;;;;;;4914978;29;20747;-55
2021/06/10 02:26:32;;;;;;;5.97;2.80;;;;;;;;;;4913898;29;20828;-55
2021/06/10 02:28:58;;;;;;;4.78;2.72;;;;;;;;;;4916731;29;20081;-55
2021/06/10 02:31:24;;;;;;;6.97;3.05;;;;;;;;;;4915481;29;20094;-54
2021/06/10 02:33:49;;;;;;;6.05;3.10;;;;;;;;;;4917242;29;20103;-54
2021/06/10 02:36:17;;;;;;;7.30;3.55;;;;;;;;;;4915119;29;20138;-55
2021/06/10 02:38:44;;;;;;;6.38;3.05;;;;;;;;;;4913068;29;20043;-55
2021/06/10 02:41:11;;;;;;;5.72;2.95;;;;;;;;;;4913182;29;20129;-54
2021/06/10 02:43:37;;;;;;;5.32;3.15;;;;;;;;;;4913776;29;20052;-55
2021/06/10 02:46:03;;;;;;;6.95;4.00;;;;;;;;;;4914526;29;20035;-57
2021/06/10 02:48:32;;;;;;;5.30;3.35;;;;;;;;;;4913730;29;20048;-56
2021/06/10 02:50:58;;;;;;;6.40;3.38;;;;;;;;;;4915470;29;20044;-56
2021/06/10 02:53:24;;;;;;;8.20;3.75;;;;;;;;;;4912741;29;20598;-56
2021/06/10 02:55:51;;;;;;;6.25;3.65;;;;;;;;;;4913015;29;20722;-56
2021/06/10 02:58:18;;;;;;;6.72;3.33;;;;;;;;;;4912280;29;20051;-56
2021/06/10 03:00:44;;;;;;;7.68;3.47;;;;;;;;;;4912702;29;20052;-55
2021/06/10 03:03:12;;;;;;;5.85;3.53;;;;;;;;;;4912796;29;20044;-54
2021/06/10 03:05:39;;;;;;;7.32;3.55;;;;;;;;;;4912486;29;20048;-56
2021/06/10 03:08:05;;;;;;;7.28;3.75;;;;;;;;;;4913662;29;20036;-56
2021/06/10 03:10:34;;;;;;;7.07;4.00;;;;;;;;;;4912749;29;20055;-56
2021/06/10 03:13:03;;;;;;;6.05;3.78;;;;;;;;;;4912285;29;22068;-56
2021/06/10 03:15:30;;;;;;;6.38;4.40;;;;;;;;;;4911635;29;20127;-56
2021/06/10 03:17:57;;;;;;;9.20;4.38;;;;;;;;;;4913775;29;20186;-57
2021/06/10 03:20:23;;;;;;;6.88;4.15;;;;;;;;;;4911593;29;20353;-59
2021/06/10 03:22:49;;;;;;;7.50;4.90;;;;;;;;;;4911864;29;20102;-58
2021/06/10 03:25:15;;;;;;;8.70;4.93;;;;;;;;;;4914150;29;20036;-57
2021/06/10 03:27:41;;;;;;;9.35;4.57;;;;;;;;;;4913651;29;20039;-56
2021/06/10 03:30:08;;;;;;;7.63;4.80;;;;;;;;;;4913361;29;20059;-56
2021/06/10 03:32:34;;;;;;;9.13;5.82;;;;;;;;;;4912384;29;20044;-57
2021/06/10 03:35:01;;;;;;;8.13;5.30;;;;;;;;;;4912365;29;20043;-57
2021/06/10 03:37:27;;;;;;;10.23;5.70;;;;;;;;;;4911851;29;20485;-56
2021/06/10 03:39:53;;;;;;;9.25;5.60;;;;;;;;;;4895978;29;20039;-56
2021/06/10 03:42:20;;;;;;;8.05;5.30;;;;;;;;;;4912539;29;20078;-57
2021/06/10 03:44:46;;;;;;;11.50;5.80;;;;;;;;;;4915372;29;20406;-56
2021/06/10 03:47:13;;;;;;;8.57;5.90;;;;;;;;;;4914889;29;20048;-56
2021/06/10 03:49:39;;;;;;;9.52;6.05;;;;;;;;;;4912915;29;20457;-56
2021/06/10 03:52:05;;;;;;;8.82;6.20;;;;;;;;;;4913200;29;20961;-56
2021/06/10 03:54:31;;;;;;;8.20;6.35;;;;;;;;;;4910547;29;20401;-55
2021/06/10 03:56:58;;;;;;;10.18;6.82;;;;;;;;;;4913725;29;20047;-56
2021/06/10 03:59:23;;;;;;;13.68;7.78;;;;;;;;;;4910922;29;20036;-56
2021/06/10 04:01:49;;;;;;;10.02;7.18;;;;;;;;;;4898672;29;20039;-57
2021/06/10 04:04:17;;;;;;;10.55;7.72;;;;;;;;;;4911512;29;20052;-57
2021/06/10 04:06:43;;;;;;;11.48;7.07;;;;;;;;;;4911555;29;20163;-55
2021/06/10 04:09:09;;;;;;;14.25;9.63;;;;;;;;;;4895652;29;20052;-53
2021/06/10 04:11:37;;;;;;;10.75;7.15;;;;;;;;;;4910959;29;20086;-54
2021/06/10 04:14:03;;;;;;;11.48;6.97;;;;;;;;;;4911816;29;20051;-55
2021/06/10 04:16:29;;;;;;;11.00;6.53;;;;;;;;;;4911845;29;20456;-56
2021/06/10 04:18:55;;;;;;;12.80;7.40;;;;;;;;;;4897691;29;20043;-54
2021/06/10 04:21:21;;;;;;;10.05;6.68;;;;;;;;;;4910502;29;20067;-53
2021/06/10 04:23:47;;;;;;;9.77;6.43;;;;;;;;;;4913897;29;20130;-55
2021/06/10 04:26:13;;;;;;;9.60;6.88;;;;;;;;;;4911931;29;20127;-55
2021/06/10 04:28:39;;;;;;;10.52;6.70;;;;;;;;;;4912483;29;20048;-54
2021/06/10 04:31:04;;;;;;;9.88;7.07;;;;;;;;;;4911687;29;20107;-54
2021/06/10 04:33:30;;;;;;;10.93;7.55;;;;;;;;;;4912533;29;20374;-52
2021/06/10 04:35:56;;;;;;;13.00;7.70;;;;;;;;;;4912777;29;20183;-55
2021/06/10 04:38:22;;;;;;;10.00;7.32;;;;;;;;;;4911307;29;20127;-55
2021/06/10 04:40:48;;;;;;;11.95;8.52;;;;;;;;;;4912900;29;20040;-54
2021/06/10 04:43:14;;;;;;;11.15;7.70;;;;;;;;;;4911367;29;20159;-52
2021/06/10 04:45:40;;;;;;;10.50;7.72;;;;;;;;;;4911270;29;20048;-53
2021/06/10 04:48:06;;;;;;;12.85;8.10;;;;;;;;;;4912777;29;20066;-55
2021/06/10 04:50:34;;;;;;;10.80;8.77;;;;;;;;;;4909621;29;20122;-55
2021/06/10 04:53:00;;;;;;;11.45;8.32;;;;;;;;;;4911409;29;20465;-52
2021/06/10 04:55:26;;;;;;;11.68;7.60;;;;;;;;;;4911538;29;20342;-55
2021/06/10 04:57:51;;;;;;;11.43;9.32;;;;;;;;;;4912358;29;20058;-56
2021/06/10 05:00:17;;;;;;;12.68;8.02;;;;;;;;;;4912784;29;20075;-54
2021/06/10 05:02:43;;;;;;;15.25;9.95;;;;;;;;;;4911565;29;20044;-54
2021/06/10 05:05:10;;;;;;;16.35;11.52;;;;;;;;;;4913908;29;20116;-56
2021/06/10 05:07:35;;;;;;;14.82;11.00;;;;;;;;;;4914486;29;20036;-55
2021/06/10 05:10:02;;;;;;;18.17;10.63;;;;;;;;;;4912979;29;20044;-55
2021/06/10 05:12:28;;;;;;;13.00;10.25;;;;;;;;;;4912896;29;20223;-55
2021/06/10 05:14:54;;;;;;;15.52;10.68;;;;;;;;;;4914605;29;20048;-52
2021/06/10 05:17:19;;;;;;;14.35;10.98;;;;;;;;;;4914017;29;20039;-54
2021/06/10 05:19:45;;;;;;;17.80;11.93;;;;;;;;;;4915357;29;20051;-55
2021/06/10 05:22:11;;;;;;;12.75;10.55;;;;;;;;;;4914907;29;20048;-53
2021/06/10 05:24:37;;;;;;;14.05;11.32;;;;;;;;;;4914345;29;20524;-53
2021/06/10 05:27:06;;;;;;;14.95;11.20;;;;;;;;;;4903559;29;20395;-54
2021/06/10 05:29:32;;;;;;;14.98;11.27;;;;;;;;;;4913477;29;20035;-55
2021/06/10 05:31:58;;;;;;;15.75;11.30;;;;;;;;;;4912801;29;20050;-54
2021/06/10 05:34:24;;;;;;;16.20;11.30;;;;;;;;;;4917002;29;20063;-53
2021/06/10 05:36:49;;;;;;;16.63;11.55;;;;;;;;;;4917182;29;20047;-54
2021/06/10 05:39:15;;;;;;;17.40;12.38;;;;;;;;;;4915852;29;20040;-51
2021/06/10 05:41:41;;;;;;;17.23;12.82;;;;;;;;;;4914018;29;20365;-55
2021/06/10 05:44:07;;;;;;;20.17;12.55;;;;;;;;;;4898236;29;20059;-56
2021/06/10 05:46:33;;;;;;;17.40;12.77;;;;;;;;;;4916065;29;20115;-55
2021/06/10 05:48:59;;;;;;;17.42;12.57;;;;;;;;;;4916056;29;20079;-52
2021/06/10 05:51:24;;;;;;;13.88;11.40;;;;;;;;;;4914469;29;20036;-56
2021/06/10 05:53:50;;;;;;;13.20;10.48;;;;;;;;;;4915363;29;20048;-55
2021/06/10 05:56:16;;;;;;;17.27;11.75;;;;;;;;;;4915010;29;20047;-55
2021/06/10 05:58:42;;;;;;;17.88;13.05;;;;;;;;;;4913779;29;20059;-55
2021/06/10 06:01:14;;;;;;;17.65;13.88;;;;;;;;;;4915815;29;20413;-52
2021/06/10 06:03:41;;;;;;;16.95;12.15;;;;;;;;;;4914992;29;20052;-55
2021/06/10 06:06:07;;;;;;;17.15;13.60;;;;;;;;;;4914290;29;20028;-55
2021/06/10 06:08:33;;;;;;;20.67;14.90;;;;;;;;;;4899139;29;20048;-56
2021/06/10 06:10:59;;;;;;;19.08;15.02;;;;;;;;;;4918122;29;20051;-53
2021/06/10 06:13:43;;;;;;;18.52;14.93;;;;;;;;;;4917501;29;20551;-55
2021/06/10 06:16:10;;;;;;;17.67;14.45;;;;;;;;;;4924159;29;20090;-56
2021/06/10 06:18:36;;;;;;;19.10;14.90;;;;;;;;;;4918966;29;20051;-54
2021/06/10 06:21:02;;;;;;;19.52;15.68;;;;;;;;;;4918248;29;20036;-56
2021/06/10 06:23:29;;;;;;;19.55;13.88;;;;;;;;;;4914874;29;20055;-53
2021/06/10 06:25:55;;;;;;;16.90;13.43;;;;;;;;;;4915992;29;20039;-52
2021/06/10 06:28:21;;;;;;;15.75;12.77;;;;;;;;;;4914411;29;20044;-54
2021/06/10 06:30:47;;;;;;;14.95;11.70;;;;;;;;;;4913022;29;20039;-55
2021/06/10 06:33:13;;;;;;;16.40;11.68;;;;;;;;;;4914412;29;20047;-54
2021/06/10 06:35:41;;;;;;;18.10;12.45;;;;;;;;;;4913828;29;20132;-52
2021/06/10 06:38:07;;;;;;;14.43;11.60;;;;;;;;;;4914471;29;20766;-55
2021/06/10 06:40:33;;;;;;;21.85;12.95;;;;;;;;;;4901216;29;20528;-51
2021/06/10 06:43:00;;;;;;;18.55;13.60;;;;;;;;;;4913625;29;20059;-53
2021/06/10 06:45:26;;;;;;;19.42;13.60;;;;;;;;;;4914729;29;21912;-54
2021/06/10 06:47:51;;;;;;;18.98;13.88;;;;;;;;;;4914916;29;20047;-55
2021/06/10 06:50:17;;;;;;;16.60;12.95;;;;;;;;;;4915041;29;20846;-53
2021/06/10 06:52:43;;;;;;;19.98;13.90;;;;;;;;;;4913557;29;20067;-54
2021/06/10 06:55:09;;;;;;;17.77;15.48;;;;;;;;;;4914931;29;20036;-53
2021/06/10 06:57:35;;;;;;;19.15;15.82;;;;;;;;;;4912459;29;20052;-55
2021/06/10 07:00:01;;;;;;;19.90;15.55;;;;;;;;;;4913716;29;20087;-56
2021/06/10 07:02:27;;;;;;;20.67;16.20;;;;;;;;;;4910588;29;20124;-55
2021/06/10 07:04:54;;;;;;;19.83;16.45;;;;;;;;;;4913418;29;20059;-55
2021/06/10 07:07:19;;;;;;;23.27;17.90;;;;;;;;;;4913620;29;20035;-56
2021/06/10 07:09:45;;;;;;;23.60;17.45;;;;;;;;;;4912980;29;20622;-56
2021/06/10 07:12:12;;;;;;;25.25;20.55;;;;;;;;;;4913923;29;20047;-53
2021/06/10 07:14:38;;;;;;;26.42;20.92;;;;;;;;;;4911765;29;20056;-53
2021/06/10 07:17:04;;;;;;;25.80;20.42;;;;;;;;;;4913561;29;20044;-54
2021/06/10 07:19:30;;;;;;;27.83;19.70;;;;;;;;;;4910235;29;20166;-53
2021/06/10 07:21:56;;;;;;;26.70;20.23;;;;;;;;;;4898871;29;20496;-54
2021/06/10 07:24:22;;;;;;;24.33;19.25;;;;;;;;;;4913517;29;20363;-53
2021/06/10 07:26:48;;;;;;;21.48;18.40;;;;;;;;;;4915925;29;20099;-54
2021/06/10 07:29:14;;;;;;;24.35;20.33;;;;;;;;;;4913564;29;20043;-54
2021/06/10 07:31:40;;;;;;;27.10;21.48;;;;;;;;;;4911344;29;20043;-53
2021/06/10 07:34:06;;;;;;;25.80;20.08;;;;;;;;;;4913355;29;20051;-55
2021/06/10 07:36:33;;;;;;;22.20;18.77;;;;;;;;;;4913412;29;20051;-55
2021/06/10 07:39:00;;;;;;;23.88;19.83;;;;;;;;;;4912712;29;20051;-54
2021/06/10 07:41:26;;;;;;;25.08;19.67;;;;;;;;;;4912443;29;20166;-53
2021/06/10 07:43:51;;;;;;;24.85;20.50;;;;;;;;;;4912648;29;20098;-54
2021/06/10 07:46:18;;;;;;;21.52;19.23;;;;;;;;;;4912416;29;20051;-54
2021/06/10 07:48:43;;;;;;;22.77;19.13;;;;;;;;;;4913245;29;20043;-54
2021/06/10 07:51:09;;;;;;;26.95;19.95;;;;;;;;;;4911237;29;20039;-53
2021/06/10 07:53:36;;;;;;;24.35;18.83;;;;;;;;;;4913896;29;20425;-53
2021/06/10 07:56:04;;;;;;;20.60;17.42;;;;;;;;;;4912527;28;20082;-52
2021/06/10 07:58:30;;;;;;;20.85;17.33;;;;;;;;;;4910656;29;20138;-52
2021/06/10 08:00:56;;;;;;;23.52;19.13;;;;;;;;;;4911723;29;20122;-54
2021/06/10 08:03:22;;;;;;;23.40;19.80;;;;;;;;;;4912889;29;20058;-55
2021/06/10 08:05:49;;;;;;;29.00;23.23;;;;;;;;;;4911187;29;20813;-53
2021/06/10 08:08:15;;;;;;;31.52;24.27;;;;;;;;;;4910920;29;20071;-55
2021/06/10 08:10:41;;;;;;;29.02;22.90;;;;;;;;;;4911532;29;20036;-54
2021/06/10 08:13:09;;;;;;;31.17;22.52;;;;;;;;;;4913065;29;20068;-55
2021/06/10 08:15:35;;;;;;;29.20;22.80;;;;;;;;;;4911769;29;20497;-54
2021/06/10 08:18:02;;;;;;;27.67;22.65;;;;;;;;;;4912604;29;20050;-53
2021/06/10 08:20:29;;;;;;;29.20;23.17;;;;;;;;;;4912510;29;20503;-53
2021/06/10 08:22:58;;;;;;;28.23;23.35;;;;;;;;;;4904811;29;20127;-54
2021/06/10 08:25:26;;;;;;;31.30;23.25;;;;;;;;;;4912651;29;20121;-53
2021/06/10 08:27:52;;;;;;;29.50;23.25;;;;;;;;;;4914058;29;20131;-54
2021/06/10 08:30:18;;;;;;;27.98;22.50;;;;;;;;;;4911544;29;21287;-53
2021/06/10 08:32:44;;;;;;;35.28;25.92;;;;;;;;;;4911177;29;20048;-55
2021/06/10 08:35:10;;;;;;;29.63;22.92;;;;;;;;;;4913614;29;20106;-54
2021/06/10 08:37:36;;;;;;;32.45;25.55;;;;;;;;;;4912878;29;20517;-55
2021/06/10 08:40:04;;;;;;;32.58;24.75;;;;;;;;;;4912470;29;20145;-53
2021/06/10 08:42:30;;;;;;;34.75;25.10;;;;;;;;;;4911996;29;20048;-55
2021/06/10 08:44:56;;;;;;;30.58;24.30;;;;;;;;;;4911440;29;22241;-50
2021/06/10 08:47:24;;;;;;;35.08;26.52;;;;;;;;;;4911230;29;20039;-53
2021/06/10 08:49:50;;;;;;;33.13;24.52;;;;;;;;;;4911875;29;20539;-52
2021/06/10 08:52:16;;;;;;;34.95;25.88;;;;;;;;;;4910039;29;20048;-55
2021/06/10 08:54:42;;;;;;;35.67;24.63;;;;;;;;;;4911197;29;20050;-56
2021/06/10 08:57:08;;;;;;;38.53;24.90;;;;;;;;;;4913544;29;21975;-54
2021/06/10 08:59:34;;;;;;;33.25;23.88;;;;;;;;;;4909998;29;20170;-55
2021/06/10 09:02:00;;;;;;;31.90;22.60;;;;;;;;;;4910156;29;20490;-53
2021/06/10 09:04:26;;;;;;;30.48;22.23;;;;;;;;;;4909246;29;20553;-55
2021/06/10 09:06:53;;;;;;;30.17;22.25;;;;;;;;;;4912979;29;20044;-54
2021/06/10 09:09:20;;;;;;;27.25;20.58;;;;;;;;;;4910249;29;20044;-56
2021/06/10 09:11:46;;;;;;;28.45;21.02;;;;;;;;;;4911140;29;20053;-56
2021/06/10 09:14:12;;;;;;;26.70;19.42;;;;;;;;;;4910395;29;20055;-53
2021/06/10 09:16:38;;;;;;;25.08;20.27;;;;;;;;;;4911229;29;20103;-53
2021/06/10 09:19:11;;;;;;;24.02;18.58;;;;;;;;;;4910676;29;20068;-55
2021/06/10 09:21:47;;;;;;;25.17;20.20;;;;;;;;;;4909559;29;20055;-55
2021/06/10 09:24:20;;;;;;;24.50;17.77;;;;;;;;;;4910350;29;21022;-55
2021/06/10 09:26:54;;;;;;;21.95;17.60;;;;;;;;;;4910496;29;20135;-55
2021/06/10 09:29:19;;;;;;;;;;;;;;;;;;4910706;29;20043;-56
2021/06/10 09:31:45;;;;;;;11.68;7.55;;;;;;;;;;4911337;29;19955;-53
2021/06/10 09:34:16;;;;;;;7.53;4.68;;;;;;;;;;4910373;29;20040;-55
2021/06/10 09:36:48;;;;;;;7.57;4.28;;;;;;;;;;4909940;29;20067;-52
2021/06/10 09:39:15;;;;;;;8.57;4.10;;;;;;;;;;4910067;29;20044;-55
2021/06/10 09:41:59;;;;;;;7.78;4.30;;;;;;;;;;4910705;29;20039;-55
2021/06/10 09:44:38;;;;;;;5.80;4.10;;;;;;;;;;4910929;29;20079;-53
2021/06/10 09:47:04;;;;;;;6.88;4.05;;;;;;;;;;4913750;29;20627;-55
2021/06/10 09:49:30;;;;;;;6.97;3.85;;;;;;;;;;4912119;29;20048;-55
2021/06/10 09:51:56;;;;;;;6.20;3.30;;;;;;;;;;4908306;29;20060;-52
2021/06/10 09:54:38;;;;;;;6.05;3.70;;;;;;;;;;4909812;29;20379;-54
2021/06/10 09:57:04;;;;;;;7.40;4.10;;;;;;;;;;4911275;29;20040;-55
2021/06/10 09:59:47;;;;;;;6.03;4.07;;;;;;;;;;4910118;29;20086;-51
2021/06/10 10:02:16;;;;;;;6.15;4.07;;;;;;;;;;4911425;29;20080;-55
2021/06/10 10:04:59;;;;;;;7.53;4.47;;;;;;;;;;4908421;29;20052;-52
2021/06/10 10:07:25;;;;;;;7.70;4.43;;;;;;;;;;4909430;29;20096;-56
2021/06/10 10:09:51;;;;;;;8.05;5.22;;;;;;;;;;4911646;29;20077;-55
2021/06/10 10:12:17;;;;;;;8.45;4.15;;;;;;;;;;4909804;29;20036;-55
2021/06/10 10:14:43;;;;;;;8.45;5.28;;;;;;;;;;4911064;29;20056;-52
2021/06/10 10:17:09;;;;;;;8.32;5.00;;;;;;;;;;4911248;29;20044;-55
2021/06/10 10:19:35;;;;;;;9.90;5.13;;;;;;;;;;4910513;29;20040;-53
2021/06/10 10:22:01;;;;;;;12.32;5.60;;;;;;;;;;4913477;29;20063;-55
2021/06/10 10:24:27;;;;;;;7.57;4.93;;;;;;;;;;4914593;29;20115;-53
2021/06/10 10:26:53;;;;;;;6.88;5.18;;;;;;;;;;4916519;29;20035;-53
2021/06/10 10:29:19;;;;;;;8.77;5.13;;;;;;;;;;4914627;29;20044;-54
2021/06/10 10:31:47;;;;;;;8.50;4.80;;;;;;;;;;4913033;29;20533;-53
2021/06/10 10:34:27;;;;;;;7.32;4.95;;;;;;;;;;4884314;29;20039;-52
2021/06/10 10:36:53;;;;;;;8.10;5.00;;;;;;;;;;4915891;29;20052;-55
2021/06/10 10:39:27;;;;;;;8.77;5.03;;;;;;;;;;4914594;29;20032;-52
2021/06/10 10:41:54;;;;;;;8.38;4.72;;;;;;;;;;4915621;29;20036;-53
2021/06/10 10:44:26;;;;;;;7.90;4.57;;;;;;;;;;4897070;29;20047;-55
2021/06/10 10:47:01;;;;;;;6.85;4.75;;;;;;;;;;4915719;29;20072;-55
2021/06/10 10:49:29;;;;;;;9.30;4.38;;;;;;;;;;4914351;29;20071;-54
2021/06/10 10:52:15;;;;;;;7.07;4.25;;;;;;;;;;4911731;29;20067;-54
2021/06/10 10:54:41;;;;;;;9.38;4.28;;;;;;;;;;4913637;29;20044;-53
2021/06/10 10:57:27;;;;;;;7.88;4.22;;;;;;;;;;4913028;29;20088;-53
2021/06/10 10:59:53;;;;;;;8.13;6.05;;;;;;;;;;4914299;29;20044;-53
2021/06/10 11:02:19;;;;;;;11.73;7.00;;;;;;;;;;4911579;29;20103;-50
2021/06/10 11:04:55;;;;;;;8.48;5.90;;;;;;;;;;4907865;29;20047;-51
2021/06/10 11:07:36;;;;;;;11.07;6.32;;;;;;;;;;4911851;29;20551;-53
2021/06/10 11:10:15;;;;;;;10.20;5.45;;;;;;;;;;4914142;29;20051;-53
2021/06/10 11:12:41;;;;;;;6.97;5.15;;;;;;;;;;4913918;29;20054;-53
2021/06/10 11:15:09;;;;;;;9.95;6.35;;;;;;;;;;4901042;29;20052;-52
2021/06/10 11:17:44;;;;;;;8.82;5.07;;;;;;;;;;4914136;29;20147;-53
2021/06/10 11:20:14;;;;;;;9.30;4.93;;;;;;;;;;4913106;29;20599;-52
2021/06/10 11:22:41;;;;;;;10.70;5.43;;;;;;;;;;4896379;29;20055;-55
2021/06/10 11:25:08;;;;;;;10.10;5.32;;;;;;;;;;4914580;29;20056;-52
2021/06/10 11:27:40;;;;;;;8.43;5.43;;;;;;;;;;4913108;29;20068;-55
2021/06/10 11:30:10;;;;;;;9.75;6.75;;;;;;;;;;4911811;29;20110;-55
2021/06/10 11:32:55;;;;;;;12.07;7.20;;;;;;;;;;4910771;29;20127;-55
2021/06/10 11:35:28;;;;;;;9.55;6.53;;;;;;;;;;4913876;29;20039;-53
2021/06/10 11:37:58;;;;;;;10.88;7.60;;;;;;;;;;4913195;29;20087;-53
2021/06/10 11:40:24;;;;;;;11.60;7.07;;;;;;;;;;4911669;29;20036;-53
2021/06/10 11:42:50;;;;;;;10.25;7.20;;;;;;;;;;4912877;29;20405;-53
2021/06/10 11:45:20;;;;;;;10.27;7.43;;;;;;;;;;4912945;29;20044;-54
2021/06/10 11:47:47;;;;;;;11.65;8.10;;;;;;;;;;4914681;29;20047;-51
2021/06/10 11:50:24;;;;;;;10.65;7.93;;;;;;;;;;4912197;29;20040;-55
2021/06/10 11:52:51;;;;;;;10.10;7.28;;;;;;;;;;4913677;29;20689;-55
2021/06/10 11:55:17;;;;;;;10.00;7.28;;;;;;;;;;4915281;29;20039;-54
2021/06/10 11:57:43;;;;;;;12.40;7.18;;;;;;;;;;4918216;29;20047;-55
2021/06/10 12:00:10;;;;;;;11.00;7.35;;;;;;;;;;4923221;29;20042;-55
2021/06/10 12:02:37;;;;;;;10.38;7.68;;;;;;;;;;4923620;29;20067;-55
2021/06/10 12:05:15;;;;;;;11.63;7.78;;;;;;;;;;4919733;29;20544;-55
2021/06/10 12:07:41;;;;;;;9.02;7.35;;;;;;;;;;4916489;29;20049;-55
2021/06/10 12:10:13;;;;;;;11.93;6.93;;;;;;;;;;4911505;29;20756;-53
2021/06/10 12:12:44;;;;;;;12.32;7.03;;;;;;;;;;4911578;29;20064;-51
2021/06/10 12:15:24;;;;;;;11.13;7.13;;;;;;;;;;4914375;29;20062;-52
2021/06/10 12:17:51;;;;;;;8.40;6.50;;;;;;;;;;4911427;29;21929;-55
2021/06/10 12:20:17;;;;;;;10.23;7.15;;;;;;;;;;4912336;29;20506;-53
2021/06/10 12:22:46;;;;;;;10.60;7.18;;;;;;;;;;4911607;29;20083;-53
2021/06/10 12:25:26;;;;;;;9.57;6.50;;;;;;;;;;4891394;29;20055;-54
2021/06/10 12:27:55;;;;;;;10.30;6.85;;;;;;;;;;4912721;29;20054;-53
2021/06/10 12:30:21;;;;;;;11.20;7.10;;;;;;;;;;4912181;29;20061;-56
2021/06/10 12:32:47;;;;;;;12.20;6.95;;;;;;;;;;4911110;29;20040;-54
2021/06/10 12:35:12;;;;;;;14.50;7.85;;;;;;;;;;4912145;29;20098;-55
2021/06/10 12:37:38;;;;;;;12.40;7.28;;;;;;;;;;4910314;29;20052;-54
2021/06/10 12:40:04;;;;;;;10.95;7.63;;;;;;;;;;4912355;29;20047;-57
2021/06/10 12:42:30;;;;;;;9.10;6.78;;;;;;;;;;4909663;29;20060;-56
2021/06/10 12:44:56;;;;;;;13.48;6.85;;;;;;;;;;4911341;29;20065;-55
2021/06/10 12:47:35;;;;;;;10.55;6.57;;;;;;;;;;4910903;29;20451;-53
2021/06/10 12:50:01;;;;;;;8.75;6.25;;;;;;;;;;4911542;29;20438;-57
2021/06/10 12:52:34;;;;;;;13.15;6.70;;;;;;;;;;4911167;29;20063;-56
2021/06/10 12:55:00;;;;;;;9.45;5.65;;;;;;;;;;4911453;29;20437;-56
2021/06/10 12:57:30;;;;;;;11.68;5.45;;;;;;;;;;4902322;29;20399;-55
2021/06/10 12:59:56;;;;;;;10.10;5.15;;;;;;;;;;4900995;29;20046;-55
2021/06/10 13:02:25;;;;;;;11.20;5.10;;;;;;;;;;4900494;29;20489;-55
2021/06/10 13:04:51;;;;;;;9.05;4.45;;;;;;;;;;4900911;29;20056;-53
2021/06/10 13:07:26;;;;;;;7.10;4.10;;;;;;;;;;4901280;29;20040;-55
2021/06/10 13:09:53;;;;;;;9.27;3.97;;;;;;;;;;4898646;29;20131;-55
2021/06/10 13:12:21;;;;;;;12.60;3.75;;;;;;;;;;4900150;29;20505;-56
2021/06/10 13:15:19;;;;;;;7.75;3.97;;;;;;;;;;4900200;29;20052;-56
2021/06/10 13:18:00;;;;;;;8.45;3.90;;;;;;;;;;4856492;29;20152;-52
2021/06/10 13:20:41;;;;;;;7.57;3.30;;;;;;;;;;4900107;29;20070;-53
2021/06/10 13:23:07;;;;;;;5.28;3.10;;;;;;;;;;4910676;29;20043;-54
2021/06/10 13:25:32;;;;;;;7.65;3.00;;;;;;;;;;4909185;29;20158;-53
2021/06/10 13:28:15;;;;;;;9.38;2.97;;;;;;;;;;4911642;29;20048;-55
2021/06/10 13:30:42;;;;;;;6.75;2.40;;;;;;;;;;4911961;29;20039;-55
2021/06/10 13:33:08;;;;;;;4.88;2.15;;;;;;;;;;4912135;29;20095;-53
2021/06/10 13:35:41;;;;;;;9.55;2.15;;;;;;;;;;4909994;29;20489;-55
2021/06/10 13:38:09;;;;;;;7.45;1.85;;;;;;;;;;4911675;29;20045;-52
2021/06/10 13:40:35;;;;;;;4.70;2.08;;;;;;;;;;4911424;29;20039;-54
2021/06/10 13:43:01;;;;;;;8.18;2.25;;;;;;;;;;4911642;29;20819;-52
2021/06/10 13:45:30;;;;;;;6.00;1.83;;;;;;;;;;4907811;29;20130;-55
2021/06/10 13:47:57;;;;;;;7.20;1.70;;;;;;;;;;4911311;29;20044;-56
2021/06/10 13:50:22;;;;;;;4.43;1.60;;;;;;;;;;4912582;29;20052;-55
2021/06/10 13:52:48;;;;;;;5.53;1.35;;;;;;;;;;4914161;29;20476;-51
2021/06/10 13:55:14;;;;;;;5.05;1.40;;;;;;;;;;4906775;29;20046;-55
2021/06/10 13:57:40;;;;;;;5.20;1.30;;;;;;;;;;4924388;29;20048;-55
2021/06/10 14:00:06;;;;;;;6.72;1.40;;;;;;;;;;4922416;29;20087;-55
2021/06/10 14:02:32;;;;;;;4.60;1.05;;;;;;;;;;4921164;29;20086;-55
2021/06/10 14:04:58;;;;;;;3.47;1.02;;;;;;;;;;4919388;29;20048;-53
2021/06/10 14:07:24;;;;;;;4.00;1.00;;;;;;;;;;4917470;29;20333;-52
2021/06/10 14:09:50;;;;;;;3.40;1.02;;;;;;;;;;4904214;29;20053;-55
2021/06/10 14:12:16;;;;;;;2.67;1.00;;;;;;;;;;4917205;29;20047;-55
2021/06/10 14:14:41;;;;;;;4.35;1.08;;;;;;;;;;4915273;29;20135;-53
2021/06/10 14:17:07;;;;;;;3.67;0.90;;;;;;;;;;4915758;29;20048;-54
2021/06/10 14:19:33;;;;;;;3.60;0.90;;;;;;;;;;4915564;29;20070;-54
2021/06/10 14:21:59;;;;;;;6.35;1.10;;;;;;;;;;4916702;29;20055;-54
2021/06/10 14:24:25;;;;;;;2.72;0.82;;;;;;;;;;4916690;29;20428;-54
2021/06/10 14:26:51;;;;;;;7.50;1.75;;;;;;;;;;4913637;29;20036;-54
2021/06/10 14:34:17;;;;;;;3.08;0.93;;;;;;;;;;4914777;29;20584;-54
2021/06/10 14:36:45;;;;;;;8.30;1.00;;;;;;;;;;4913021;29;20124;-53
2021/06/10 14:39:11;;;;;;;4.05;0.90;;;;;;;;;;4914491;29;20071;-54
2021/06/10 14:41:37;;;;;;;6.55;1.10;;;;;;;;;;4913546;29;20770;-52